Accueil
METAR-TAF:

METAR-TAF

Aéroports :

Aéroport de Castres-Mazamet

Castres, France

latitude: 43-33-25N, longitude: 2-17-21E, altitude: 239 m

Observation

Le bulletin a été fait il y a 19 minutes, à 23:30 UTC
Vent 7 kt de ouest/sud-ouest
Température 6°C
Humidité 75%
Pression 1006 hPa
Visibilité 10 km ou plus
Nuages fragmentés à une hauteur de 2600 ft
Nuages fragmentés à une hauteur de 5800 ft
Ciel couvert à une hauteur de 14000 ft

METAR: LFCK 232330Z AUTO 25007KT 9999 BKN026 BKN058 OVC140 06/02 Q1006

Heure: 00:49 (23:49 UTC)


TAF: absent

Observations et prévisions météorologiques de plus de 4000 aéroports (messages METAR et TAF).

Les stations disponibles sont représentées par des disques jaunes et rouges sur la carte.

Passer la souris dessus pour voir le nom de la station.

Cliquer dessus pour voir les observations et prévisions météorologiques.

Pour changer de carte: cliquez sur les boutons verts avec une croix noire pour zoomer, sur le bouton vert avec un tiret pour effectuer un zoom arrière, ou sur les flèches vertes pour les cartes adjacentes.


METAR-TAF: